Portada
METAR-TAF:

METAR-TAF

Aeropuertos :

Skelton Airport

Eureka, Alaska, Estados Unidos

latitud: 61-56N, longitud: 147-10W, altitud: 1002 m

Observación

El informe se hizo hace 35 minutos, a las 03:56 UTC
Viento 11 kt del suroeste con ráfagas de 16 kt
Temperatura 19°C
Humedad 40%
Presión 1026 hPa
Visibilidad: 16.1 km
Escasas nubes a una altura de 8000 ft

METAR: PAZK 250356Z AUTO 23011G16KT 10SM FEW080 19/05 A3029 RMK AO2 SLP265 T01890050

Hora: 20:31 (04:31 UTC)


TAF: falta

Observaciones y pronósticos meteorológicos de más de 4000 aeropuertos (mensajes METAR y TAF).

Los puntos amarillos y rojos representan las estaciones disponibles.

Ponga el ratón en el punto deseado para ver el nombre de la estación.

Haga clic para ver las observaciones y los pronósticos meteorológicos.

Para cambiar el mapa : haga clic en los botones verdes con una cruz de color negro para hacer un zoom, en el botón verde con un guión para alejar o en las flechas verdes para mapas adyacentes.


METAR-TAF: